Hundvaag 1 weather for Mar 2002
Month no. 177
Obs.
Da.
Temp. Dew Point Precip. Wind
Speed
Wind gusts Cloud cover Press. Humidity Wind dir. Sunny OPT
01.03.2002 -2,3   0,1     10 1008,5     1  
02.03.2002 0,6   4,8     6 1007,7     1  
03.03.2002 3,9   2,1     0 1006,5        
04.03.2002 5,6   3,2     0 1009,1        
05.03.2002 3,1   1,2     9 1006,7     1  
06.03.2002 5,9   9,2     0 990,0        
07.03.2002 2,2   5,6     0 995,1        
08.03.2002 1,6   0,8     0 1013,5        
09.03.2002 4,7   8,5     1 1001,3        
10.03.2002 0,5   3,1     10 1006,8     1  
11.03.2002 4,8   4,7     2 1002,6        
12.03.2002 3,8   0,3     9 1007,7     1  
13.03.2002 3,0   0,1     9 1013,1     1  
14.03.2002 -1,2   0,0     10 1021,3     1  
15.03.2002 -1,0   0,0     10 1022,7     1  
16.03.2002 4,5   0,0     1 1017,7        
17.03.2002 5,9   0,3     0 1012,9        
18.03.2002 5,5   2,6     0 1005,3        
19.03.2002 5,1   6,2     0 996,1        
20.03.2002 3,2   0,6     8 1004,3     1  
21.03.2002 1,2   0,0     10 1011,7     1  
22.03.2002 1,7   0,0     10 1014,7     1  
23.03.2002 3,1   0,0     10 1025,3     1  
24.03.2002 1,5   0,0     9 1026,8     1  
25.03.2002 4,4   0,0     0 1022,9        
26.03.2002 6,2   10,7     10 1022,4     1  
27.03.2002 3,3   0,0     1 1022,7     1  
28.03.2002 8,6   0,0     1 1021,8        
29.03.2002 6,7   0,0     0 1021,3     1  
30.03.2002 5,7   0,0     10 1016,6     1  
31.03.2002 8,4   0,0     0 1013,6     1  
Avrg/Sum 3,6   64,1     4,7 1011,9     18